Time;durP1;ratioP1;P1;durP2;ratioP2;P2;SDS_P1;SDS_P2;PMS_P1;PMS_P2;Temp;Humidity;BMP_temperature;BMP_pressure;BME280_temperature;BME280_humidity;BME280_pressure;Samples;Min_cycle;Max_cycle;Signal;HPM_P1;HPM_P2
2021/11/02 00:02:09;;;;;;;3.37;1.40;;;;;;;4.76;93.39;94227.31;5057200;28;20192;-82
2021/11/02 00:04:35;;;;;;;1.87;1.40;;;;;;;4.75;93.22;94223.13;5083242;28;20184;-81
2021/11/02 00:07:00;;;;;;;2.70;1.63;;;;;;;4.73;93.41;94224.22;5075304;28;20180;-82
2021/11/02 00:09:27;;;;;;;2.73;1.90;;;;;;;4.76;93.00;94222.16;5075036;28;20617;-82
2021/11/02 00:11:53;;;;;;;1.77;1.47;;;;;;;4.74;93.10;94225.84;5071938;28;20224;-82
2021/11/02 00:14:20;;;;;;;2.90;1.40;;;;;;;4.81;92.67;94222.56;5081804;28;20189;-82
2021/11/02 00:16:51;;;;;;;3.37;1.40;;;;;;;4.87;92.50;94230.66;5083275;28;20180;-82
2021/11/02 00:19:17;;;;;;;2.13;1.27;;;;;;;4.83;92.63;94223.22;5091876;28;20247;-82
2021/11/02 00:21:45;;;;;;;2.30;1.17;;;;;;;4.91;92.37;94214.78;5091877;28;20659;-81
2021/11/02 00:24:14;;;;;;;1.70;1.60;;;;;;;4.91;92.61;94214.78;5085528;28;20228;-81
2021/11/02 00:26:39;;;;;;;2.00;1.57;;;;;;;4.88;92.50;94216.84;5067418;28;20172;-82
2021/11/02 00:29:05;;;;;;;2.37;1.40;;;;;;;4.87;93.09;94220.38;5074348;28;20200;-82
2021/11/02 00:31:30;;;;;;;1.67;1.27;;;;;;;4.94;92.57;94214.47;5091225;28;20281;-82
2021/11/02 00:33:56;;;;;;;5.13;1.70;;;;;;;4.95;92.63;94210.16;5067299;28;20181;-81
2021/11/02 00:36:21;;;;;;;3.40;1.40;;;;;;;4.99;92.71;94214.84;5073094;28;20185;-82
2021/11/02 00:38:46;;;;;;;4.43;1.40;;;;;;;5.01;92.40;94212.13;5091221;28;20207;-82
2021/11/02 00:41:12;;;;;;;1.87;1.37;;;;;;;5.03;92.30;94212.78;5091579;28;20180;-82
2021/11/02 00:43:38;;;;;;;3.27;1.40;;;;;;;5.06;92.58;94212.50;5090501;28;20297;-82
2021/11/02 00:46:03;;;;;;;1.63;1.10;;;;;;;5.08;92.38;94213.97;5065449;28;20188;-82
2021/11/02 00:48:28;;;;;;;3.20;1.30;;;;;;;5.11;92.55;94216.25;5078803;28;20260;-82
2021/11/02 00:50:54;;;;;;;2.63;1.27;;;;;;;5.20;92.45;94213.75;5076324;28;20188;-82
2021/11/02 00:53:20;;;;;;;2.00;1.30;;;;;;;5.11;93.26;94210.28;5073426;28;20203;-82
2021/11/02 00:55:46;;;;;;;3.40;1.40;;;;;;;5.15;93.14;94211.63;5078835;28;20255;-82
2021/11/02 00:58:12;;;;;;;5.47;1.30;;;;;;;5.17;93.10;94209.72;5066576;28;20194;-82
2021/11/02 01:00:38;;;;;;;5.00;1.40;;;;;;;5.22;93.31;94212.66;5072136;28;20240;-82
2021/11/02 01:03:04;;;;;;;2.73;1.63;;;;;;;5.33;93.06;94209.88;5053567;28;20187;-82
2021/11/02 01:05:29;;;;;;;4.10;1.20;;;;;;;5.29;93.50;94208.53;5055698;28;20279;-82
2021/11/02 01:07:55;;;;;;;6.47;1.20;;;;;;;5.35;93.13;94204.56;5079870;28;20216;-82
2021/11/02 01:10:20;;;;;;;3.17;1.17;;;;;;;5.38;93.13;94206.81;5074572;28;20228;-82
2021/11/02 01:12:47;;;;;;;3.53;1.23;;;;;;;5.33;93.48;94202.13;5094993;28;20220;-82
2021/11/02 01:15:22;;;;;;;4.70;1.10;;;;;;;5.42;93.09;94197.88;5095088;28;20545;-82
2021/11/02 01:17:48;;;;;;;3.47;1.33;;;;;;;5.32;93.04;94203.09;5087124;28;20180;-82
2021/11/02 01:20:14;;;;;;;2.20;1.20;;;;;;;5.31;93.34;94195.53;5086128;28;20192;-82
2021/11/02 01:22:41;;;;;;;5.43;1.50;;;;;;;5.32;93.66;94202.28;5080210;28;20168;-82
2021/11/02 01:25:08;;;;;;;3.13;1.50;;;;;;;5.27;93.67;94201.91;5077767;28;20333;-82
2021/11/02 01:27:34;;;;;;;2.37;1.30;;;;;;;5.20;94.20;94193.97;5069183;28;20192;-82
2021/11/02 01:30:00;;;;;;;3.73;1.37;;;;;;;5.42;93.69;94197.06;5070655;28;20220;-82
2021/11/02 01:32:25;;;;;;;3.47;1.60;;;;;;;5.35;93.50;94197.66;5080087;28;20242;-82
2021/11/02 01:34:51;;;;;;;1.67;1.30;;;;;;;5.38;93.13;94197.34;5094558;28;20176;-82
2021/11/02 01:37:16;;;;;;;4.43;1.30;;;;;;;5.39;93.71;94190.44;5093761;28;20180;-81
2021/11/02 01:39:42;;;;;;;2.57;1.30;;;;;;;5.37;93.46;94195.72;5066072;28;20250;-81
2021/11/02 01:42:07;;;;;;;2.23;1.70;;;;;;;5.34;93.73;94200.38;5090877;28;20210;-82
2021/11/02 01:44:33;;;;;;;1.80;1.10;;;;;;;5.33;94.03;94188.47;5077361;28;20199;-82
2021/11/02 01:46:59;;;;;;;1.50;1.00;;;;;;;5.46;93.08;94203.50;5077728;28;20204;-82
2021/11/02 01:49:24;;;;;;;3.93;1.10;;;;;;;5.37;92.89;94203.44;5072175;28;20208;-82
2021/11/02 01:51:50;;;;;;;3.60;1.03;;;;;;;5.40;92.80;94200.59;5068229;28;20238;-82
2021/11/02 01:54:17;;;;;;;3.10;1.47;;;;;;;5.39;92.87;94196.41;5057180;28;20226;-82
2021/11/02 01:56:48;;;;;;;2.20;1.17;;;;;;;5.33;92.83;94196.19;5057774;28;20213;-82
2021/11/02 01:59:14;;;;;;;2.57;1.23;;;;;;;5.38;92.72;94187.03;5075468;28;20211;-82
2021/11/02 02:02:06;;;;;;;2.33;1.40;;;;;;;5.21;93.03;94189.63;5073471;28;20384;-82
2021/11/02 02:05:04;;;;;;;3.67;1.57;;;;;;;5.12;92.77;94188.75;5073879;28;20223;-81
2021/11/02 02:08:04;;;;;;;4.33;2.03;;;;;;;5.05;93.33;94190.31;5075540;28;20183;-82
2021/11/02 02:10:53;;;;;;;2.00;1.53;;;;;;;5.04;92.70;94184.38;5064280;28;20664;-82
2021/11/02 02:13:31;;;;;;;3.13;1.50;;;;;;;4.99;92.97;94193.47;5081200;28;20656;-82
2021/11/02 02:16:08;;;;;;;3.93;1.30;;;;;;;4.91;92.87;94190.81;5073735;28;20189;-82
2021/11/02 02:18:45;;;;;;;2.07;1.73;;;;;;;4.97;92.91;94188.47;5073460;28;20256;-82
2021/11/02 02:21:31;;;;;;;3.67;3.30;;;;;;;4.94;93.02;94182.78;5061784;28;20189;-81
2021/11/02 02:24:09;;;;;;;3.00;2.10;;;;;;;4.88;93.16;94183.41;5077945;28;20181;-82
2021/11/02 02:27:18;;;;;;;2.90;2.10;;;;;;;4.86;93.04;94180.16;5073522;28;20394;-82
2021/11/02 02:29:45;;;;;;;3.43;1.90;;;;;;;4.79;93.05;94175.59;5053810;28;20207;-82
2021/11/02 02:32:16;;;;;;;2.53;2.33;;;;;;;4.70;93.60;94173.09;5057659;28;20215;-82
2021/11/02 02:34:45;;;;;;;3.40;2.10;;;;;;;4.69;93.98;94162.00;5079668;28;20593;-82
2021/11/02 02:37:11;;;;;;;3.27;2.20;;;;;;;4.71;93.41;94160.09;5055805;28;20619;-81
2021/11/02 02:39:37;;;;;;;4.63;2.10;;;;;;;4.69;93.72;94163.78;5072442;28;20220;-82
2021/11/02 02:42:03;;;;;;;4.40;2.13;;;;;;;4.75;93.48;94158.03;5057641;28;20177;-81
2021/11/02 02:44:30;;;;;;;3.33;2.10;;;;;;;4.65;93.97;94159.84;5065890;28;20225;-82
2021/11/02 02:46:56;;;;;;;4.87;2.07;;;;;;;4.50;93.80;94159.53;5076149;28;20226;-82
2021/11/02 02:49:22;;;;;;;2.97;2.07;;;;;;;4.47;93.98;94149.53;5075549;28;20321;-81
2021/11/02 02:51:48;;;;;;;3.20;2.03;;;;;;;4.41;94.15;94152.69;5092356;28;20204;-81
2021/11/02 02:54:15;;;;;;;2.47;1.67;;;;;;;4.36;94.32;94153.13;5072523;28;20635;-82
2021/11/02 02:56:45;;;;;;;4.03;2.00;;;;;;;4.36;94.35;94152.31;5072196;28;20261;-82
2021/11/02 02:59:11;;;;;;;2.00;1.70;;;;;;;4.40;94.57;94153.66;5055999;28;20227;-82
2021/11/02 03:01:38;;;;;;;2.67;1.73;;;;;;;4.27;94.47;94154.00;5060155;28;20835;-82
2021/11/02 03:04:06;;;;;;;1.90;1.60;;;;;;;4.25;95.01;94151.56;5071555;28;20255;-82
2021/11/02 03:06:35;;;;;;;5.53;1.70;;;;;;;4.22;94.64;94156.97;5072236;28;20173;-82
2021/11/02 03:09:05;;;;;;;5.13;1.87;;;;;;;4.26;94.58;94158.31;5071748;28;20201;-82
2021/11/02 03:11:32;;;;;;;3.43;1.57;;;;;;;4.21;94.59;94155.38;5055945;28;20349;-82
2021/11/02 03:13:59;;;;;;;2.80;1.57;;;;;;;4.25;94.56;94151.56;5078947;28;20649;-82
2021/11/02 03:16:40;;;;;;;3.90;1.80;;;;;;;4.23;94.91;94148.31;5055219;28;20181;-82
2021/11/02 03:19:49;;;;;;;1.70;1.23;;;;;;;4.30;94.36;94147.75;5057682;28;20196;-82
2021/11/02 03:57:05;;;;;;;1.10;1.03;;;;;;;3.87;94.10;94162.81;5071776;28;20573;-81
2021/11/02 03:59:58;;;;;;;1.80;1.30;;;;;;;3.78;94.49;94160.28;5055743;28;20201;-82
2021/11/02 04:27:31;;;;;;;3.47;1.47;;;;;;;3.75;94.41;94160.56;5075107;28;20713;-82
2021/11/02 04:42:31;;;;;;;1.90;1.00;;;;;;;3.77;94.74;94156.09;5070981;28;20184;-82
2021/11/02 04:46:54;;;;;;;2.97;1.30;;;;;;;3.69;94.29;94149.91;5074039;28;20284;-82
2021/11/02 05:19:51;;;;;;;3.03;1.50;;;;;;;3.44;96.08;94144.56;5076102;28;20185;-81
2021/11/02 05:20:39;;;;;;;3.63;1.60;;;;;;;3.46;95.93;94140.13;5070412;28;20983;-82
2021/11/02 05:55:26;;;;;;;2.60;1.83;;;;;;;3.29;96.09;94142.44;5072575;28;20193;-81
2021/11/02 06:00:48;;;;;;;2.80;1.60;;;;;;;3.28;95.81;94135.69;5085034;28;20238;-81
2021/11/02 06:03:28;;;;;;;2.17;1.23;;;;;;;3.23;95.80;94131.91;5076362;28;20168;-81
2021/11/02 06:06:06;;;;;;;4.30;1.77;;;;;;;3.24;95.79;94128.41;5078901;28;20547;-82
2021/11/02 06:08:50;;;;;;;1.83;1.50;;;;;;;3.22;96.16;94125.16;5094291;28;20224;-82
2021/11/02 06:28:48;;;;;;;4.37;1.43;;;;;;;3.29;94.64;94147.56;5097377;28;20223;-83
2021/11/02 06:31:19;;;;;;;2.10;1.37;;;;;;;3.27;95.15;94149.47;5076414;28;20328;-82
2021/11/02 06:34:02;;;;;;;2.03;1.33;;;;;;;3.34;95.33;94150.50;5085956;28;20174;-81
2021/11/02 06:39:25;;;;;;;2.37;1.30;;;;;;;3.42;95.24;94142.94;5081581;28;20208;-85
2021/11/02 06:47:33;;;;;;;2.77;1.97;;;;;;;3.60;94.69;94142.22;5089784;28;20208;-82
2021/11/02 06:50:28;;;;;;;2.90;1.80;;;;;;;3.72;95.06;94148.03;5077552;28;20569;-81
2021/11/02 06:53:06;;;;;;;2.87;2.67;;;;;;;3.80;94.56;94155.81;5060441;28;20207;-82
2021/11/02 06:59:03;;;;;;;2.77;2.57;;;;;;;3.98;94.25;94149.00;5092879;28;20186;-82
2021/11/02 07:20:34;;;;;;;13.30;6.53;;;;;;;4.81;92.71;94165.16;5077206;28;20243;-82
2021/11/02 07:26:42;;;;;;;22.77;9.03;;;;;;;4.99;92.16;94176.25;5085466;28;20215;-82
2021/11/02 07:29:17;;;;;;;33.40;13.60;;;;;;;5.10;92.23;94180.38;5079239;28;20197;-82
2021/11/02 08:47:08;;;;;;;5.00;2.90;;;;;;;5.82;90.41;94174.13;5069905;28;20279;-82
2021/11/02 08:49:39;;;;;;;5.47;2.90;;;;;;;5.81;90.06;94171.72;5031411;28;20216;-81
2021/11/02 08:52:05;;;;;;;8.77;3.80;;;;;;;5.79;89.58;94174.47;5068253;28;20801;-81
2021/11/02 08:54:31;;;;;;;7.00;2.03;;;;;;;5.60;89.22;94175.47;5046745;28;20285;-81
2021/11/02 08:56:56;;;;;;;3.30;2.93;;;;;;;5.51;89.64;94167.84;5034024;28;20185;-81
2021/11/02 08:59:22;;;;;;;5.53;2.93;;;;;;;5.65;89.86;94167.28;5061041;28;20950;-81
2021/11/02 09:01:53;;;;;;;4.30;2.87;;;;;;;5.78;89.64;94166.88;5070009;28;20198;-81
2021/11/02 09:04:19;;;;;;;5.03;1.97;;;;;;;5.75;89.58;94172.34;5036385;28;20520;-81
2021/11/02 09:06:49;;;;;;;3.27;1.60;;;;;;;5.67;90.44;94163.59;5059376;28;20841;-80
2021/11/02 09:09:14;;;;;;;3.13;1.83;;;;;;;5.72;90.22;94168.28;5059988;28;20206;-81
2021/11/02 09:11:40;;;;;;;4.97;2.13;;;;;;;5.63;90.87;94166.63;5066302;28;20282;-82
2021/11/02 09:14:06;;;;;;;2.63;2.13;;;;;;;5.69;90.55;94169.41;5082787;28;20178;-81
2021/11/02 09:16:32;;;;;;;2.57;2.10;;;;;;;5.53;90.77;94169.28;5078590;28;20200;-80
2021/11/02 09:18:57;;;;;;;2.20;1.70;;;;;;;5.40;91.57;94168.91;5063017;28;20200;-80
2021/11/02 09:21:23;;;;;;;5.47;2.33;;;;;;;5.31;92.94;94170.59;5086127;28;20551;-81
2021/11/02 09:23:50;;;;;;;4.80;1.90;;;;;;;5.31;92.90;94177.50;5068083;28;20187;-80
2021/11/02 09:26:19;;;;;;;4.10;2.40;;;;;;;5.34;92.86;94177.22;5080963;28;20184;-80
2021/11/02 09:28:46;;;;;;;5.03;2.00;;;;;;;5.45;93.13;94168.44;5054144;28;20633;-80
2021/11/02 09:31:20;;;;;;;3.00;2.50;;;;;;;5.37;93.39;94169.97;5066201;28;20252;-82
2021/11/02 09:33:45;;;;;;;4.73;2.23;;;;;;;5.51;93.66;94171.22;5067381;28;20181;-81
2021/11/02 09:36:13;;;;;;;4.97;2.50;;;;;;;5.52;93.76;94172.84;5079826;28;20199;-81
2021/11/02 09:38:54;;;;;;;3.77;2.30;;;;;;;5.48;93.75;94170.69;5082022;28;20270;-81
2021/11/02 09:41:54;;;;;;;4.30;2.53;;;;;;;5.55;93.98;94175.09;5084350;28;20782;-81
2021/11/02 09:44:47;;;;;;;4.90;3.20;;;;;;;5.69;93.76;94173.75;5065774;28;20181;-81
2021/11/02 09:47:31;;;;;;;2.20;2.00;;;;;;;5.66;93.60;94172.31;5077090;28;20177;-80
2021/11/02 09:50:24;;;;;;;3.47;2.13;;;;;;;5.65;93.96;94170.69;5088532;28;20664;-81
2021/11/02 09:53:11;;;;;;;4.50;2.30;;;;;;;5.68;94.02;94167.78;5081719;28;20213;-80
2021/11/02 09:56:00;;;;;;;3.37;2.57;;;;;;;5.77;93.88;94175.56;5076546;28;20226;-82
2021/11/02 09:58:53;;;;;;;2.87;2.13;;;;;;;5.77;94.15;94176.38;5075892;28;20534;-82
2021/11/02 10:01:49;;;;;;;5.37;2.20;;;;;;;5.66;94.11;94171.50;5077044;28;20188;-79
2021/11/02 10:04:39;;;;;;;3.33;2.20;;;;;;;5.85;93.58;94180.78;5093651;28;20196;-82
2021/11/02 10:07:27;;;;;;;2.50;1.80;;;;;;;5.91;94.04;94178.41;5058550;28;20181;-80
2021/11/02 10:10:02;;;;;;;2.03;1.40;;;;;;;5.94;94.01;94178.13;5066274;28;20291;-81
2021/11/02 10:13:03;;;;;;;1.87;1.73;;;;;;;5.94;93.74;94170.41;5080765;28;20223;-80
2021/11/02 10:16:01;;;;;;;2.73;1.23;;;;;;;5.96;93.83;94173.63;5078210;28;20272;-81
2021/11/02 10:18:40;;;;;;;2.13;1.50;;;;;;;6.06;93.44;94167.56;5085710;28;20188;-81
2021/11/02 10:21:38;;;;;;;2.87;1.60;;;;;;;6.18;93.21;94163.72;5061864;28;20228;-81
2021/11/02 10:24:28;;;;;;;5.33;1.50;;;;;;;6.12;92.86;94175.47;5076820;28;20201;-81
2021/11/02 10:27:07;;;;;;;5.80;1.70;;;;;;;6.23;92.50;94172.63;5085502;28;20200;-80
2021/11/02 10:30:03;;;;;;;3.93;1.60;;;;;;;6.24;92.53;94174.25;5079570;28;20204;-81
2021/11/02 10:32:30;;;;;;;2.23;1.30;;;;;;;6.51;92.53;94175.78;5094219;28;20283;-80
2021/11/02 10:35:19;;;;;;;2.23;1.90;;;;;;;6.59;92.11;94171.63;5065429;28;20217;-81
2021/11/02 10:38:06;;;;;;;2.43;1.60;;;;;;;6.73;92.09;94168.44;5078927;28;20192;-81
2021/11/02 10:40:38;;;;;;;1.87;1.60;;;;;;;6.68;92.11;94168.09;5066146;28;20201;-81
2021/11/02 10:43:27;;;;;;;1.83;1.57;;;;;;;6.81;92.24;94166.69;5080478;28;20185;-81
2021/11/02 10:46:01;;;;;;;2.27;1.57;;;;;;;6.85;91.91;94171.53;5080128;28;20210;-81
2021/11/02 10:48:47;;;;;;;4.53;3.53;;;;;;;6.89;91.72;94170.25;5081613;28;20177;-81
2021/11/02 10:51:35;;;;;;;15.30;8.70;;;;;;;6.77;90.23;94173.13;5072531;28;20197;-81
2021/11/02 10:54:16;;;;;;;8.63;4.83;;;;;;;6.97;88.95;94168.47;5076661;28;20184;-81
2021/11/02 10:57:12;;;;;;;18.93;9.27;;;;;;;7.01;89.13;94164.63;5066816;28;20215;-79
2021/11/02 10:59:41;;;;;;;23.27;13.13;;;;;;;6.98;88.65;94166.69;5075007;28;20208;-82
2021/11/02 11:02:20;;;;;;;1.90;1.70;;;;;;;7.01;87.60;94162.03;5079992;28;20173;-81
2021/11/02 11:04:46;;;;;;;0.77;0.70;;;;;;;7.23;87.75;94177.88;5063565;28;20193;-81
2021/11/02 11:07:13;;;;;;;1.90;1.53;;;;;;;7.21;89.32;94174.66;5064626;28;20184;-81
2021/11/02 11:09:39;;;;;;;4.97;1.80;;;;;;;7.40;88.65;94176.91;5069184;28;20201;-80
2021/11/02 11:12:06;;;;;;;2.37;1.00;;;;;;;7.41;88.76;94172.56;5067125;28;20358;-80
2021/11/02 11:14:32;;;;;;;3.23;1.20;;;;;;;7.51;89.63;94170.59;5060391;28;20192;-81
2021/11/02 11:16:58;;;;;;;0.97;0.87;;;;;;;7.72;87.76;94172.69;5047577;28;20191;-81
2021/11/02 11:19:29;;;;;;;3.33;1.67;;;;;;;7.74;86.62;94173.34;5062522;28;20207;-81
2021/11/02 11:21:59;;;;;;;1.03;0.93;;;;;;;7.97;87.48;94169.09;5066701;28;20180;-81
2021/11/02 11:24:39;;;;;;;1.17;0.70;;;;;;;8.08;86.06;94173.13;5087092;28;20563;-81
2021/11/02 11:27:07;;;;;;;1.10;0.60;;;;;;;8.01;84.82;94177.34;5075807;28;20184;-81
2021/11/02 11:29:35;;;;;;;0.47;0.47;;;;;;;7.99;83.80;94185.25;5080951;28;20200;-82
2021/11/02 11:32:00;;;;;;;1.13;0.53;;;;;;;7.74;84.37;94173.34;5077580;28;20284;-81
2021/11/02 11:34:34;;;;;;;0.80;0.70;;;;;;;7.70;85.07;94172.88;5062547;28;20253;-81
2021/11/02 11:37:01;;;;;;;0.77;0.40;;;;;;;7.67;83.88;94173.97;5085790;28;20188;-80
2021/11/02 11:39:30;;;;;;;0.60;0.60;;;;;;;7.79;83.79;94177.06;5062300;28;20205;-81
2021/11/02 11:41:57;;;;;;;0.30;0.30;;;;;;;7.56;82.47;94171.75;5080662;28;20177;-81
2021/11/02 11:44:23;;;;;;;1.90;0.60;;;;;;;7.32;84.19;94172.53;5098338;28;20196;-80
2021/11/02 11:47:03;;;;;;;0.40;0.40;;;;;;;7.46;84.65;94178.84;5063623;28;20205;-79
2021/11/02 11:49:28;;;;;;;0.80;0.53;;;;;;;7.59;84.65;94171.41;5065608;28;20266;-80
2021/11/02 11:52:01;;;;;;;1.37;0.63;;;;;;;7.64;84.69;94174.31;5068055;28;20193;-81
2021/11/02 11:54:42;;;;;;;0.57;0.40;;;;;;;7.59;84.16;94171.41;5063387;28;20236;-81
2021/11/02 11:57:08;;;;;;;4.77;0.80;;;;;;;7.45;84.17;94174.66;5069831;28;20192;-80
2021/11/02 11:59:34;;;;;;;1.97;1.50;;;;;;;7.50;84.84;94166.41;5069053;28;20215;-81
2021/11/02 12:02:30;;;;;;;2.20;1.13;;;;;;;7.57;84.89;94162.22;5062862;28;20227;-81
2021/11/02 12:04:59;;;;;;;3.13;1.10;;;;;;;7.93;84.57;94162.63;5069394;28;20188;-82
2021/11/02 12:07:48;;;;;;;0.60;0.53;;;;;;;8.21;83.84;94169.03;5060318;28;20283;-80
2021/11/02 12:10:15;;;;;;;0.93;0.70;;;;;;;8.66;83.20;94164.22;5067768;28;20201;-80
2021/11/02 12:12:42;;;;;;;0.50;0.50;;;;;;;8.59;81.18;94160.69;5060483;28;20656;-80
2021/11/02 12:15:14;;;;;;;0.60;0.60;;;;;;;8.52;81.21;94157.97;5071401;28;20262;-80
2021/11/02 12:17:42;;;;;;;0.30;0.30;;;;;;;8.04;81.29;94164.91;5072488;28;20180;-80
2021/11/02 12:20:11;;;;;;;0.50;0.50;;;;;;;8.27;82.45;94162.38;5062705;28;20205;-80
2021/11/02 12:22:56;;;;;;;0.30;0.30;;;;;;;7.95;81.20;94166.69;5063620;28;20641;-80
2021/11/02 12:25:26;;;;;;;0.30;0.30;;;;;;;8.19;81.10;94165.81;5058927;28;20192;-80
2021/11/02 12:27:52;;;;;;;1.00;0.50;;;;;;;8.16;81.11;94152.41;5088377;28;20177;-80
2021/11/02 12:30:22;;;;;;;1.33;0.50;;;;;;;8.35;80.33;94156.41;5058370;28;20270;-80
2021/11/02 12:32:55;;;;;;;0.50;0.50;;;;;;;8.36;79.61;94164.00;5076785;28;20696;-81
2021/11/02 12:35:28;;;;;;;0.73;0.30;;;;;;;8.56;78.65;94156.63;5073839;28;20238;-80
2021/11/02 12:37:56;;;;;;;1.30;0.80;;;;;;;8.54;78.91;94158.59;5083280;28;20192;-80
2021/11/02 12:40:30;;;;;;;0.70;0.70;;;;;;;8.72;78.04;94160.94;5079136;28;20242;-80
2021/11/02 12:42:56;;;;;;;0.43;0.40;;;;;;;8.99;77.35;94167.41;5068287;28;20235;-80
2021/11/02 12:45:24;;;;;;;0.50;0.40;;;;;;;9.16;76.34;94161.16;5076804;28;20273;-80
2021/11/02 12:47:50;;;;;;;0.93;0.37;;;;;;;8.99;75.69;94159.63;5084750;28;20701;-80
2021/11/02 12:50:18;;;;;;;0.30;0.30;;;;;;;8.62;73.63;94161.13;5080724;28;20224;-80
2021/11/02 12:52:45;;;;;;;0.40;0.30;;;;;;;8.79;75.84;94164.44;5079045;28;20203;-80
2021/11/02 12:55:13;;;;;;;0.40;0.37;;;;;;;8.90;74.47;94155.50;5081809;28;20180;-80
2021/11/02 12:57:40;;;;;;;0.87;0.70;;;;;;;8.58;74.11;94161.66;5072429;28;20173;-79
2021/11/02 13:00:12;;;;;;;0.50;0.50;;;;;;;8.84;73.38;94156.19;5059871;28;20209;-79
2021/11/02 13:02:39;;;;;;;0.80;0.80;;;;;;;9.38;72.50;94159.53;5064192;28;20238;-78
2021/11/02 13:05:25;;;;;;;1.27;0.47;;;;;;;8.68;72.90;94162.25;5067138;28;20671;-81
2021/11/02 13:08:12;;;;;;;0.67;0.67;;;;;;;8.86;72.62;94154.22;5058955;28;20200;-81
2021/11/02 13:10:42;;;;;;;1.40;0.30;;;;;;;8.74;72.15;94153.78;5077118;28;20212;-81
2021/11/02 13:13:09;;;;;;;0.30;0.30;;;;;;;8.80;73.47;94160.88;5069178;28;20201;-78
2021/11/02 13:15:50;;;;;;;0.40;0.40;;;;;;;8.83;72.48;94157.16;5079922;28;20229;-81
2021/11/02 13:18:32;;;;;;;0.40;0.40;;;;;;;8.99;72.02;94157.84;5092395;28;20185;-82
2021/11/02 13:21:22;;;;;;;0.20;0.20;;;;;;;8.40;73.84;94157.53;5089524;28;20238;-80
2021/11/02 13:23:51;;;;;;;0.30;0.30;;;;;;;8.36;74.00;94160.59;5061618;28;20195;-80
2021/11/02 13:26:19;;;;;;;1.30;0.40;;;;;;;8.05;74.51;94150.19;5069737;28;20285;-81
2021/11/02 13:28:45;;;;;;;0.90;0.30;;;;;;;8.18;75.95;94151.25;5076579;28;20262;-81
2021/11/02 13:31:29;;;;;;;0.30;0.20;;;;;;;8.30;74.57;94154.28;5062584;28;20197;-83
2021/11/02 13:34:04;;;;;;;0.60;0.60;;;;;;;8.44;74.49;94152.81;5085068;28;20188;-81
2021/11/02 13:36:30;;;;;;;0.33;0.33;;;;;;;8.33;74.73;94158.34;5082093;28;20196;-81
2021/11/02 13:39:07;;;;;;;2.50;1.53;;;;;;;8.18;75.58;94161.59;5072096;28;20756;-81
2021/11/02 13:41:41;;;;;;;0.33;0.30;;;;;;;8.11;74.72;94160.66;5076838;28;20185;-81
2021/11/02 13:44:08;;;;;;;1.80;1.70;;;;;;;8.21;75.42;94157.88;5061703;28;20203;-81
2021/11/02 13:46:39;;;;;;;0.60;0.60;;;;;;;8.68;74.69;94152.72;5084003;28;20180;-80
2021/11/02 13:49:06;;;;;;;0.87;0.40;;;;;;;8.84;73.50;94151.81;5070507;28;20207;-81
2021/11/02 13:51:32;;;;;;;0.30;0.30;;;;;;;9.03;72.55;94159.13;5078457;28;20177;-79
2021/11/02 13:53:57;;;;;;;0.47;0.30;;;;;;;8.89;72.46;94156.47;5077174;28;20177;-80
2021/11/02 13:56:31;;;;;;;0.37;0.30;;;;;;;8.76;72.25;94152.66;5073755;28;20184;-79
2021/11/02 13:58:57;;;;;;;0.30;0.30;;;;;;;8.84;70.98;94153.59;5063839;28;20209;-80
2021/11/02 14:01:40;;;;;;;0.23;0.23;;;;;;;8.83;70.47;94163.13;5080718;28;20316;-80
2021/11/02 14:04:35;;;;;;;0.40;0.40;;;;;;;8.86;71.53;94160.22;5074016;28;20185;-79
2021/11/02 14:07:11;;;;;;;0.40;0.40;;;;;;;8.94;70.62;94173.13;5069434;28;20283;-80
2021/11/02 14:09:45;;;;;;;0.37;0.20;;;;;;;8.71;69.13;94173.06;5072683;28;20278;-79
2021/11/02 14:12:30;;;;;;;0.73;0.40;;;;;;;8.55;70.28;94178.31;5069705;28;20224;-81
2021/11/02 14:15:10;;;;;;;0.37;0.33;;;;;;;8.54;67.90;94175.91;5077857;28;20792;-80
2021/11/02 14:17:51;;;;;;;0.20;0.20;;;;;;;8.48;68.46;94178.19;5078537;28;20188;-81
2021/11/02 14:20:35;;;;;;;0.43;0.27;;;;;;;8.37;68.62;94185.50;5085849;28;20215;-80
2021/11/02 14:23:03;;;;;;;0.50;0.40;;;;;;;8.27;69.73;94184.84;5090664;28;20188;-80
2021/11/02 14:25:35;;;;;;;0.33;0.20;;;;;;;8.20;68.74;94180.34;5074186;28;20243;-81
2021/11/02 14:28:01;;;;;;;0.30;0.30;;;;;;;8.22;68.99;94177.63;5084290;28;20235;-80
2021/11/02 14:30:32;;;;;;;0.50;0.50;;;;;;;8.54;69.69;94192.22;5080631;28;20708;-80
2021/11/02 14:32:59;;;;;;;0.20;0.20;;;;;;;8.64;69.59;94182.47;5078451;28;20223;-80
2021/11/02 14:36:04;;;;;;;0.37;0.30;;;;;;;8.55;69.12;94187.84;5091000;28;20249;-80
2021/11/02 14:38:43;;;;;;;0.30;0.27;;;;;;;8.58;69.03;94190.13;5084496;28;20189;-80
2021/11/02 14:41:30;;;;;;;1.13;0.30;;;;;;;8.59;69.67;94189.16;5080569;28;20204;-80
2021/11/02 14:44:14;;;;;;;0.50;0.20;;;;;;;8.58;67.94;94190.13;5073735;28;20241;-80
2021/11/02 14:47:00;;;;;;;1.67;1.13;;;;;;;8.40;68.85;94182.59;5077809;28;20185;-80
2021/11/02 14:49:28;;;;;;;0.50;0.50;;;;;;;8.35;69.47;94184.88;5077964;28;20274;-79
2021/11/02 14:51:55;;;;;;;1.33;0.40;;;;;;;7.85;69.26;94184.13;5089293;28;20205;-80
2021/11/02 14:54:29;;;;;;;0.30;0.23;;;;;;;7.67;70.71;94179.16;5071791;28;20200;-80
2021/11/02 14:56:54;;;;;;;1.43;0.50;;;;;;;7.70;71.35;94185.78;5073067;28;20177;-81
2021/11/02 14:59:20;;;;;;;0.67;0.30;;;;;;;7.58;72.25;94182.72;5068585;28;20219;-80
2021/11/02 15:01:45;;;;;;;0.30;0.30;;;;;;;7.48;72.45;94189.81;5074461;28;20185;-80
2021/11/02 15:04:15;;;;;;;0.70;0.70;;;;;;;7.33;73.29;94184.50;5088669;28;20195;-80
2021/11/02 15:06:42;;;;;;;0.87;0.30;;;;;;;7.23;73.63;94188.19;5092575;28;20184;-80
2021/11/02 15:09:09;;;;;;;0.30;0.30;;;;;;;7.09;74.28;94193.03;5084754;28;20603;-79
2021/11/02 15:11:35;;;;;;;0.20;0.13;;;;;;;7.09;74.17;94195.63;5074112;28;20657;-79
2021/11/02 15:14:04;;;;;;;0.30;0.30;;;;;;;7.16;75.13;94195.00;5077243;28;20242;-81
2021/11/02 15:16:29;;;;;;;0.40;0.40;;;;;;;7.10;75.40;94199.81;5075964;28;20193;-80
2021/11/02 15:19:00;;;;;;;1.07;0.30;;;;;;;7.08;75.17;94196.59;5088197;28;20576;-80
2021/11/02 15:21:42;;;;;;;0.77;0.40;;;;;;;6.99;75.83;94189.78;5073476;28;20271;-80
2021/11/02 15:24:19;;;;;;;0.60;0.50;;;;;;;6.99;76.35;94194.97;5067296;28;20543;-80
2021/11/02 15:26:54;;;;;;;5.53;1.67;;;;;;;7.01;76.59;94205.13;5083175;28;20554;-80
2021/11/02 15:29:22;;;;;;;3.20;2.43;;;;;;;6.85;77.02;94211.03;5071984;28;20696;-81
2021/11/02 15:32:24;;;;;;;1.60;1.50;;;;;;;6.85;78.92;94211.03;5056505;28;20204;-81
2021/11/02 15:34:51;;;;;;;0.30;0.30;;;;;;;6.79;79.49;94209.09;5016892;28;20194;-77
2021/11/02 15:37:20;;;;;;;1.40;0.50;;;;;;;6.74;80.50;94224.25;5041402;28;20214;-80
2021/11/02 15:39:47;;;;;;;0.80;0.80;;;;;;;6.61;80.41;94216.13;5034208;28;20220;-80
2021/11/02 15:42:37;;;;;;;2.03;1.83;;;;;;;6.58;80.63;94216.44;5031162;28;20264;-81
2021/11/02 15:45:10;;;;;;;0.60;0.60;;;;;;;6.56;79.96;94226.91;5015540;28;20182;-80
2021/11/02 15:47:48;;;;;;;0.93;0.80;;;;;;;6.55;80.01;94227.09;5014274;28;20204;-82
2021/11/02 15:50:25;;;;;;;1.30;1.10;;;;;;;6.52;80.87;94226.41;5018915;28;20935;-80
2021/11/02 15:53:00;;;;;;;0.80;0.80;;;;;;;6.48;80.83;94221.72;5034530;28;20252;-80
2021/11/02 15:55:28;;;;;;;0.97;0.90;;;;;;;6.43;81.41;94227.34;5026182;28;20205;-80
2021/11/02 15:58:02;;;;;;;1.07;1.00;;;;;;;6.49;81.32;94234.47;5025221;28;20246;-80
2021/11/02 16:00:36;;;;;;;0.77;0.77;;;;;;;6.37;81.70;94246.03;5050293;28;21129;-81
2021/11/02 16:03:02;;;;;;;1.80;1.70;;;;;;;6.38;82.23;94244.25;5017593;28;20193;-80
2021/11/02 16:05:31;;;;;;;2.07;1.87;;;;;;;6.34;83.18;94246.31;5032461;28;20274;-81
2021/11/02 16:08:01;;;;;;;3.03;2.10;;;;;;;6.30;83.46;94245.00;5021224;28;20201;-80
2021/11/02 16:10:31;;;;;;;4.07;3.67;;;;;;;6.26;83.45;94243.69;5057891;28;20197;-80
2021/11/02 16:12:57;;;;;;;2.47;1.90;;;;;;;6.16;83.58;94238.63;5072109;28;20201;-80
2021/11/02 16:15:31;;;;;;;1.40;1.30;;;;;;;6.28;83.42;94246.13;5074128;28;20258;-81
2021/11/02 16:17:59;;;;;;;2.33;1.60;;;;;;;6.21;83.80;94245.94;5072812;28;20176;-78
2021/11/02 16:20:39;;;;;;;0.87;0.73;;;;;;;6.16;83.95;94246.38;5070472;28;20247;-81
2021/11/02 16:23:12;;;;;;;0.93;0.83;;;;;;;6.07;83.65;94238.75;5079095;28;20664;-82
2021/11/02 16:25:50;;;;;;;0.90;0.60;;;;;;;5.91;84.28;94235.09;5084743;28;20211;-82
2021/11/02 16:28:17;;;;;;;0.83;0.50;;;;;;;5.87;83.97;94238.91;5064197;28;20750;-82
2021/11/02 16:30:51;;;;;;;1.63;0.87;;;;;;;5.78;83.95;94239.00;5072983;28;20262;-82
2021/11/02 16:33:17;;;;;;;1.17;1.10;;;;;;;5.72;84.37;94239.59;5053491;28;20209;-81
2021/11/02 16:35:48;;;;;;;1.00;0.97;;;;;;;5.66;84.60;94244.41;5070130;28;20188;-81